sensor_id;sensor_type;location;lat;lon;timestamp;pressure;altitude;pressure_sealevel;temperature;humidity
7660;BME280;3872;47.902;8.162;2023-02-01T00:01:46;92536.84;;;2.23;100.00
7660;BME280;3872;47.902;8.162;2023-02-01T00:04:13;92527.81;;;2.37;100.00
7660;BME280;3872;47.902;8.162;2023-02-01T00:06:39;92533.25;;;2.24;100.00
7660;BME280;3872;47.902;8.162;2023-02-01T00:09:06;92521.84;;;2.25;100.00
7660;BME280;3872;47.902;8.162;2023-02-01T00:11:33;92517.66;;;2.35;100.00
7660;BME280;3872;47.902;8.162;2023-02-01T00:14:01;92518.13;;;1.86;100.00
7660;BME280;3872;47.902;8.162;2023-02-01T00:16:29;92510.19;;;2.27;100.00
7660;BME280;3872;47.902;8.162;2023-02-01T00:18:58;92510.78;;;2.41;100.00
7660;BME280;3872;47.902;8.162;2023-02-01T00:21:25;92503.56;;;2.20;100.00
7660;BME280;3872;47.902;8.162;2023-02-01T00:23:51;92500.16;;;2.31;100.00
7660;BME280;3872;47.902;8.162;2023-02-01T00:26:19;92507.31;;;2.75;100.00
7660;BME280;3872;47.902;8.162;2023-02-01T00:28:46;92494.63;;;2.27;100.00
7660;BME280;3872;47.902;8.162;2023-02-01T00:31:14;92486.19;;;3.00;100.00
7660;BME280;3872;47.902;8.162;2023-02-01T00:33:41;92502.03;;;2.59;100.00
7660;BME280;3872;47.902;8.162;2023-02-01T00:36:08;92495.38;;;2.91;100.00
7660;BME280;3872;47.902;8.162;2023-02-01T00:38:37;92492.91;;;3.13;100.00
7660;BME280;3872;47.902;8.162;2023-02-01T00:41:06;92494.22;;;1.84;100.00
7660;BME280;3872;47.902;8.162;2023-02-01T00:43:34;92481.97;;;2.31;100.00
7660;BME280;3872;47.902;8.162;2023-02-01T00:46:01;92477.66;;;2.88;100.00
7660;BME280;3872;47.902;8.162;2023-02-01T00:48:29;92473.88;;;2.67;100.00
7660;BME280;3872;47.902;8.162;2023-02-01T00:50:58;92483.00;;;2.07;100.00
7660;BME280;3872;47.902;8.162;2023-02-01T00:53:25;92485.41;;;2.20;100.00
7660;BME280;3872;47.902;8.162;2023-02-01T00:55:52;92487.19;;;2.31;100.00
7660;BME280;3872;47.902;8.162;2023-02-01T00:58:18;92483.34;;;2.33;100.00
7660;BME280;3872;47.902;8.162;2023-02-01T01:00:45;92474.00;;;1.98;100.00
7660;BME280;3872;47.902;8.162;2023-02-01T01:03:14;92481.56;;;2.11;100.00
7660;BME280;3872;47.902;8.162;2023-02-01T01:05:45;92482.00;;;1.73;100.00
7660;BME280;3872;47.902;8.162;2023-02-01T01:08:12;92474.97;;;2.31;100.00
7660;BME280;3872;47.902;8.162;2023-02-01T01:10:39;92476.81;;;2.19;100.00
7660;BME280;3872;47.902;8.162;2023-02-01T01:13:06;92475.84;;;2.49;100.00
7660;BME280;3872;47.902;8.162;2023-02-01T01:15:35;92472.31;;;1.91;100.00
7660;BME280;3872;47.902;8.162;2023-02-01T01:18:03;92479.41;;;2.08;100.00
7660;BME280;3872;47.902;8.162;2023-02-01T01:20:29;92478.16;;;2.33;100.00
7660;BME280;3872;47.902;8.162;2023-02-01T01:22:57;92478.84;;;1.71;100.00
7660;BME280;3872;47.902;8.162;2023-02-01T01:25:24;92467.56;;;2.12;100.00
7660;BME280;3872;47.902;8.162;2023-02-01T01:27:50;92471.84;;;1.94;100.00
7660;BME280;3872;47.902;8.162;2023-02-01T01:30:17;92479.28;;;2.26;100.00
7660;BME280;3872;47.902;8.162;2023-02-01T01:32:44;92474.44;;;2.06;100.00
7660;BME280;3872;47.902;8.162;2023-02-01T01:35:11;92476.22;;;2.29;100.00
7660;BME280;3872;47.902;8.162;2023-02-01T01:37:37;92474.50;;;2.34;100.00
7660;BME280;3872;47.902;8.162;2023-02-01T01:40:08;92476.97;;;2.53;100.00
7660;BME280;3872;47.902;8.162;2023-02-01T01:42:37;92472.53;;;1.90;100.00
7660;BME280;3872;47.902;8.162;2023-02-01T01:45:05;92475.22;;;2.07;100.00
7660;BME280;3872;47.902;8.162;2023-02-01T01:47:36;92474.31;;;2.24;100.00
7660;BME280;3872;47.902;8.162;2023-02-01T01:50:07;92456.13;;;2.93;100.00
7660;BME280;3872;47.902;8.162;2023-02-01T01:52:37;92466.81;;;2.51;100.00
7660;BME280;3872;47.902;8.162;2023-02-01T01:55:07;92463.72;;;2.26;100.00
7660;BME280;3872;47.902;8.162;2023-02-01T01:57:37;92459.50;;;2.36;100.00
7660;BME280;3872;47.902;8.162;2023-02-01T02:00:07;92449.44;;;2.40;100.00
7660;BME280;3872;47.902;8.162;2023-02-01T02:02:44;92446.81;;;1.88;100.00
7660;BME280;3872;47.902;8.162;2023-02-01T02:05:14;92444.22;;;1.88;100.00
7660;BME280;3872;47.902;8.162;2023-02-01T02:07:45;92445.22;;;1.87;100.00
7660;BME280;3872;47.902;8.162;2023-02-01T02:10:15;92438.81;;;1.90;100.00
7660;BME280;3872;47.902;8.162;2023-02-01T02:12:43;92438.22;;;2.11;100.00
7660;BME280;3872;47.902;8.162;2023-02-01T02:15:13;92429.34;;;2.35;100.00
7660;BME280;3872;47.902;8.162;2023-02-01T02:17:44;92446.66;;;2.07;100.00
7660;BME280;3872;47.902;8.162;2023-02-01T02:20:35;92440.47;;;2.19;100.00
7660;BME280;3872;47.902;8.162;2023-02-01T02:26:27;92443.41;;;2.11;100.00
7660;BME280;3872;47.902;8.162;2023-02-01T02:29:21;92439.69;;;1.95;100.00
7660;BME280;3872;47.902;8.162;2023-02-01T02:35:05;92423.78;;;1.92;100.00
7660;BME280;3872;47.902;8.162;2023-02-01T02:37:39;92416.56;;;1.94;100.00
7660;BME280;3872;47.902;8.162;2023-02-01T02:40:15;92410.47;;;2.00;100.00
7660;BME280;3872;47.902;8.162;2023-02-01T02:42:52;92411.72;;;1.98;100.00
7660;BME280;3872;47.902;8.162;2023-02-01T02:45:44;92413.22;;;2.22;100.00
7660;BME280;3872;47.902;8.162;2023-02-01T02:48:37;92415.31;;;2.48;100.00
7660;BME280;3872;47.902;8.162;2023-02-01T02:51:13;92418.97;;;1.61;100.00
7660;BME280;3872;47.902;8.162;2023-02-01T02:54:05;92406.53;;;2.38;100.00
7660;BME280;3872;47.902;8.162;2023-02-01T02:56:52;92410.72;;;1.64;100.00
7660;BME280;3872;47.902;8.162;2023-02-01T02:59:38;92409.91;;;1.86;100.00
7660;BME280;3872;47.902;8.162;2023-02-01T03:02:26;92406.53;;;1.98;100.00
7660;BME280;3872;47.902;8.162;2023-02-01T03:05:11;92392.66;;;2.32;100.00
7660;BME280;3872;47.902;8.162;2023-02-01T03:07:57;92386.28;;;2.51;100.00
7660;BME280;3872;47.902;8.162;2023-02-01T03:10:34;92375.44;;;2.14;100.00
7660;BME280;3872;47.902;8.162;2023-02-01T03:13:06;92384.00;;;2.15;100.00
7660;BME280;3872;47.902;8.162;2023-02-01T03:15:36;92379.13;;;2.30;100.00
7660;BME280;3872;47.902;8.162;2023-02-01T03:18:07;92356.19;;;1.99;100.00
7660;BME280;3872;47.902;8.162;2023-02-01T03:20:38;92367.72;;;2.31;100.00
7660;BME280;3872;47.902;8.162;2023-02-01T03:23:09;92383.84;;;1.93;100.00
7660;BME280;3872;47.902;8.162;2023-02-01T03:25:38;92380.31;;;1.99;100.00
7660;BME280;3872;47.902;8.162;2023-02-01T03:28:08;92374.16;;;2.28;100.00
7660;BME280;3872;47.902;8.162;2023-02-01T03:30:37;92373.81;;;2.82;100.00
7660;BME280;3872;47.902;8.162;2023-02-01T03:33:07;92371.03;;;2.71;100.00
7660;BME280;3872;47.902;8.162;2023-02-01T03:35:43;92369.44;;;2.54;100.00
7660;BME280;3872;47.902;8.162;2023-02-01T03:38:19;92378.53;;;2.40;100.00
7660;BME280;3872;47.902;8.162;2023-02-01T03:40:52;92376.91;;;2.95;100.00
7660;BME280;3872;47.902;8.162;2023-02-01T03:43:21;92376.53;;;2.58;100.00
7660;BME280;3872;47.902;8.162;2023-02-01T03:45:54;92381.00;;;2.46;100.00
7660;BME280;3872;47.902;8.162;2023-02-01T03:48:27;92377.38;;;2.75;100.00
7660;BME280;3872;47.902;8.162;2023-02-01T03:50:57;92383.13;;;3.28;100.00
7660;BME280;3872;47.902;8.162;2023-02-01T03:53:27;92381.91;;;2.68;100.00
7660;BME280;3872;47.902;8.162;2023-02-01T03:55:56;92380.56;;;3.11;100.00
7660;BME280;3872;47.902;8.162;2023-02-01T03:58:24;92387.25;;;3.40;100.00
7660;BME280;3872;47.902;8.162;2023-02-01T04:00:52;92383.84;;;3.06;100.00
7660;BME280;3872;47.902;8.162;2023-02-01T04:03:19;92394.44;;;2.71;100.00
7660;BME280;3872;47.902;8.162;2023-02-01T04:05:47;92391.34;;;3.03;100.00
7660;BME280;3872;47.902;8.162;2023-02-01T04:08:13;92402.84;;;3.57;100.00
7660;BME280;3872;47.902;8.162;2023-02-01T04:10:41;92406.97;;;3.20;100.00
7660;BME280;3872;47.902;8.162;2023-02-01T04:13:09;92422.34;;;2.36;100.00
7660;BME280;3872;47.902;8.162;2023-02-01T04:15:36;92419.91;;;2.58;100.00
7660;BME280;3872;47.902;8.162;2023-02-01T04:18:03;92423.94;;;2.37;100.00
7660;BME280;3872;47.902;8.162;2023-02-01T04:20:29;92415.97;;;2.84;100.00
7660;BME280;3872;47.902;8.162;2023-02-01T04:22:56;92418.16;;;2.75;100.00
7660;BME280;3872;47.902;8.162;2023-02-01T04:25:22;92428.56;;;2.35;100.00
7660;BME280;3872;47.902;8.162;2023-02-01T04:27:50;92432.09;;;2.86;100.00
7660;BME280;3872;47.902;8.162;2023-02-01T04:30:17;92437.50;;;2.67;100.00
7660;BME280;3872;47.902;8.162;2023-02-01T04:32:43;92442.28;;;2.59;100.00
7660;BME280;3872;47.902;8.162;2023-02-01T04:35:10;92441.63;;;2.52;100.00
7660;BME280;3872;47.902;8.162;2023-02-01T04:37:37;92437.44;;;2.51;100.00
7660;BME280;3872;47.902;8.162;2023-02-01T04:40:04;92425.59;;;2.71;100.00
7660;BME280;3872;47.902;8.162;2023-02-01T04:42:31;92411.75;;;2.66;100.00
7660;BME280;3872;47.902;8.162;2023-02-01T04:44:58;92404.88;;;2.88;100.00
7660;BME280;3872;47.902;8.162;2023-02-01T04:47:25;92407.31;;;2.95;100.00
7660;BME280;3872;47.902;8.162;2023-02-01T04:49:51;92398.19;;;3.59;100.00
7660;BME280;3872;47.902;8.162;2023-02-01T04:52:18;92397.66;;;2.79;100.00
7660;BME280;3872;47.902;8.162;2023-02-01T04:54:44;92379.13;;;3.03;100.00
7660;BME280;3872;47.902;8.162;2023-02-01T04:57:11;92380.78;;;3.43;100.00
7660;BME280;3872;47.902;8.162;2023-02-01T04:59:39;92391.88;;;2.88;100.00
7660;BME280;3872;47.902;8.162;2023-02-01T05:02:06;92386.91;;;3.20;100.00
7660;BME280;3872;47.902;8.162;2023-02-01T05:04:33;92393.38;;;3.01;100.00
7660;BME280;3872;47.902;8.162;2023-02-01T05:07:00;92389.53;;;3.37;100.00
7660;BME280;3872;47.902;8.162;2023-02-01T05:09:26;92385.81;;;2.99;100.00
7660;BME280;3872;47.902;8.162;2023-02-01T05:11:53;92398.66;;;2.89;100.00
7660;BME280;3872;47.902;8.162;2023-02-01T05:14:37;92407.41;;;3.00;100.00
7660;BME280;3872;47.902;8.162;2023-02-01T05:17:03;92412.28;;;2.96;100.00
7660;BME280;3872;47.902;8.162;2023-02-01T05:19:31;92415.84;;;3.07;100.00
7660;BME280;3872;47.902;8.162;2023-02-01T05:21:58;92405.03;;;3.48;100.00
7660;BME280;3872;47.902;8.162;2023-02-01T05:24:24;92404.88;;;2.88;100.00
7660;BME280;3872;47.902;8.162;2023-02-01T05:26:52;92415.56;;;3.53;100.00
7660;BME280;3872;47.902;8.162;2023-02-01T05:29:19;92414.94;;;3.85;100.00
7660;BME280;3872;47.902;8.162;2023-02-01T05:31:46;92403.22;;;3.82;100.00
7660;BME280;3872;47.902;8.162;2023-02-01T05:34:13;92401.25;;;3.56;100.00
7660;BME280;3872;47.902;8.162;2023-02-01T05:36:41;92407.59;;;3.60;100.00
7660;BME280;3872;47.902;8.162;2023-02-01T05:39:07;92403.38;;;2.92;100.00
7660;BME280;3872;47.902;8.162;2023-02-01T05:41:35;92415.78;;;3.19;100.00
7660;BME280;3872;47.902;8.162;2023-02-01T05:44:02;92435.66;;;2.40;100.00
7660;BME280;3872;47.902;8.162;2023-02-01T05:46:28;92418.00;;;3.27;100.00
7660;BME280;3872;47.902;8.162;2023-02-01T05:48:55;92415.38;;;3.10;100.00
7660;BME280;3872;47.902;8.162;2023-02-01T05:51:22;92434.41;;;3.61;100.00
7660;BME280;3872;47.902;8.162;2023-02-01T05:53:50;92440.78;;;3.20;100.00
7660;BME280;3872;47.902;8.162;2023-02-01T05:56:16;92430.22;;;3.26;100.00
7660;BME280;3872;47.902;8.162;2023-02-01T05:58:43;92436.44;;;3.25;100.00
7660;BME280;3872;47.902;8.162;2023-02-01T06:01:10;92447.28;;;3.22;100.00
7660;BME280;3872;47.902;8.162;2023-02-01T06:03:36;92444.31;;;2.85;100.00
7660;BME280;3872;47.902;8.162;2023-02-01T06:06:03;92442.34;;;2.75;100.00
7660;BME280;3872;47.902;8.162;2023-02-01T06:08:29;92452.22;;;2.50;100.00
7660;BME280;3872;47.902;8.162;2023-02-01T06:11:01;92451.25;;;2.40;100.00
7660;BME280;3872;47.902;8.162;2023-02-01T06:13:28;92450.25;;;2.29;100.00
7660;BME280;3872;47.902;8.162;2023-02-01T06:15:55;92451.97;;;2.63;100.00
7660;BME280;3872;47.902;8.162;2023-02-01T06:18:22;92447.66;;;2.97;100.00
7660;BME280;3872;47.902;8.162;2023-02-01T06:20:52;92443.38;;;3.20;100.00
7660;BME280;3872;47.902;8.162;2023-02-01T06:23:18;92449.09;;;3.05;100.00
7660;BME280;3872;47.902;8.162;2023-02-01T06:25:50;92458.59;;;2.31;100.00
7660;BME280;3872;47.902;8.162;2023-02-01T06:28:18;92456.97;;;2.53;100.00
7660;BME280;3872;47.902;8.162;2023-02-01T06:30:45;92460.84;;;2.39;100.00
7660;BME280;3872;47.902;8.162;2023-02-01T06:33:13;92452.31;;;2.95;100.00
7660;BME280;3872;47.902;8.162;2023-02-01T06:35:40;92450.88;;;3.33;100.00
7660;BME280;3872;47.902;8.162;2023-02-01T06:38:08;92453.22;;;3.18;100.00
7660;BME280;3872;47.902;8.162;2023-02-01T06:40:34;92458.22;;;2.79;100.00
7660;BME280;3872;47.902;8.162;2023-02-01T06:43:01;92455.91;;;2.66;100.00
7660;BME280;3872;47.902;8.162;2023-02-01T06:45:30;92467.50;;;2.35;100.00
7660;BME280;3872;47.902;8.162;2023-02-01T06:47:58;92468.47;;;2.69;100.00
7660;BME280;3872;47.902;8.162;2023-02-01T06:50:25;92469.91;;;2.13;100.00
7660;BME280;3872;47.902;8.162;2023-02-01T06:52:51;92490.88;;;2.35;100.00
7660;BME280;3872;47.902;8.162;2023-02-01T06:55:18;92489.94;;;2.93;100.00
7660;BME280;3872;47.902;8.162;2023-02-01T06:57:45;92500.78;;;2.61;100.00
7660;BME280;3872;47.902;8.162;2023-02-01T07:00:12;92487.44;;;2.98;100.00
7660;BME280;3872;47.902;8.162;2023-02-01T07:02:40;92482.47;;;2.56;100.00
7660;BME280;3872;47.902;8.162;2023-02-01T07:05:07;92488.41;;;2.80;100.00
7660;BME280;3872;47.902;8.162;2023-02-01T07:07:34;92465.88;;;2.57;100.00
7660;BME280;3872;47.902;8.162;2023-02-01T07:10:00;92467.91;;;2.95;100.00
7660;BME280;3872;47.902;8.162;2023-02-01T07:12:27;92470.31;;;2.45;100.00
7660;BME280;3872;47.902;8.162;2023-02-01T07:14:53;92474.03;;;2.49;100.00
7660;BME280;3872;47.902;8.162;2023-02-01T07:17:21;92462.06;;;2.88;100.00
7660;BME280;3872;47.902;8.162;2023-02-01T07:19:49;92471.09;;;2.86;100.00
7660;BME280;3872;47.902;8.162;2023-02-01T07:22:16;92477.84;;;2.58;100.00
7660;BME280;3872;47.902;8.162;2023-02-01T07:24:42;92475.47;;;2.97;100.00
7660;BME280;3872;47.902;8.162;2023-02-01T07:27:09;92476.97;;;2.53;100.00
7660;BME280;3872;47.902;8.162;2023-02-01T07:29:35;92464.34;;;3.30;100.00
7660;BME280;3872;47.902;8.162;2023-02-01T07:32:02;92467.41;;;3.77;100.00
7660;BME280;3872;47.902;8.162;2023-02-01T07:34:28;92464.09;;;3.31;100.00
7660;BME280;3872;47.902;8.162;2023-02-01T07:36:57;92477.38;;;3.46;100.00
7660;BME280;3872;47.902;8.162;2023-02-01T07:39:23;92468.84;;;2.78;100.00
7660;BME280;3872;47.902;8.162;2023-02-01T07:41:50;92466.28;;;3.23;100.00
7660;BME280;3872;47.902;8.162;2023-02-01T07:44:16;92473.19;;;3.00;100.00
7660;BME280;3872;47.902;8.162;2023-02-01T07:46:47;92475.16;;;3.38;100.00
7660;BME280;3872;47.902;8.162;2023-02-01T07:49:14;92471.09;;;2.86;100.00
7660;BME280;3872;47.902;8.162;2023-02-01T07:51:43;92478.94;;;3.47;100.00
7660;BME280;3872;47.902;8.162;2023-02-01T07:54:11;92460.78;;;3.19;100.00
7660;BME280;3872;47.902;8.162;2023-02-01T07:56:38;92462.22;;;3.27;100.00
7660;BME280;3872;47.902;8.162;2023-02-01T07:59:04;92470.34;;;3.64;100.00
7660;BME280;3872;47.902;8.162;2023-02-01T08:01:32;92460.44;;;4.16;100.00
7660;BME280;3872;47.902;8.162;2023-02-01T08:03:59;92462.38;;;3.53;100.00
7660;BME280;3872;47.902;8.162;2023-02-01T08:06:28;92459.84;;;3.59;100.00
7660;BME280;3872;47.902;8.162;2023-02-01T08:08:56;92480.19;;;3.78;100.00
7660;BME280;3872;47.902;8.162;2023-02-01T08:11:25;92465.84;;;3.26;100.00
7660;BME280;3872;47.902;8.162;2023-02-01T08:13:52;92483.09;;;3.48;100.00
7660;BME280;3872;47.902;8.162;2023-02-01T08:16:19;92481.47;;;3.14;100.00
7660;BME280;3872;47.902;8.162;2023-02-01T08:18:46;92494.63;;;3.07;100.00
7660;BME280;3872;47.902;8.162;2023-02-01T08:21:15;92493.69;;;3.13;100.00
7660;BME280;3872;47.902;8.162;2023-02-01T08:23:42;92494.63;;;3.07;100.00
7660;BME280;3872;47.902;8.162;2023-02-01T08:26:10;92505.94;;;3.30;100.00
7660;BME280;3872;47.902;8.162;2023-02-01T08:28:40;92500.81;;;3.35;100.00
7660;BME280;3872;47.902;8.162;2023-02-01T08:31:08;92498.03;;;3.08;100.00
7660;BME280;3872;47.902;8.162;2023-02-01T08:33:35;92490.28;;;3.41;100.00
7660;BME280;3872;47.902;8.162;2023-02-01T08:36:04;92483.03;;;3.43;100.00
7660;BME280;3872;47.902;8.162;2023-02-01T08:38:31;92477.66;;;3.50;100.00
7660;BME280;3872;47.902;8.162;2023-02-01T08:41:04;92477.03;;;4.10;100.00
7660;BME280;3872;47.902;8.162;2023-02-01T08:43:31;92491.91;;;3.31;100.00
7660;BME280;3872;47.902;8.162;2023-02-01T08:45:58;92486.94;;;3.29;100.00
7660;BME280;3872;47.902;8.162;2023-02-01T08:48:25;92491.00;;;3.87;100.00
7660;BME280;3872;47.902;8.162;2023-02-01T08:50:52;92495.63;;;3.35;100.00
7660;BME280;3872;47.902;8.162;2023-02-01T08:53:18;92506.88;;;2.95;100.00
7660;BME280;3872;47.902;8.162;2023-02-01T08:55:45;92510.34;;;3.74;100.00
7660;BME280;3872;47.902;8.162;2023-02-01T08:58:12;92514.03;;;3.95;100.00
7660;BME280;3872;47.902;8.162;2023-02-01T09:00:39;92512.66;;;3.42;100.00
7660;BME280;3872;47.902;8.162;2023-02-01T09:03:09;92512.66;;;3.26;100.00
7660;BME280;3872;47.902;8.162;2023-02-01T09:05:36;92514.22;;;3.88;100.00
7660;BME280;3872;47.902;8.162;2023-02-01T09:08:02;92519.13;;;3.40;100.00
7660;BME280;3872;47.902;8.162;2023-02-01T09:10:29;92525.13;;;3.57;100.00
7660;BME280;3872;47.902;8.162;2023-02-01T09:12:56;92529.97;;;3.65;100.00
7660;BME280;3872;47.902;8.162;2023-02-01T09:15:23;92535.88;;;4.27;100.00
7660;BME280;3872;47.902;8.162;2023-02-01T09:17:49;92532.03;;;3.35;100.00
7660;BME280;3872;47.902;8.162;2023-02-01T09:20:17;92528.13;;;3.49;100.00
7660;BME280;3872;47.902;8.162;2023-02-01T09:22:45;92525.66;;;3.26;100.00
7660;BME280;3872;47.902;8.162;2023-02-01T09:25:12;92519.16;;;3.57;100.00
7660;BME280;3872;47.902;8.162;2023-02-01T09:27:39;92527.75;;;3.40;100.00
7660;BME280;3872;47.902;8.162;2023-02-01T09:30:06;92539.38;;;4.16;100.00
7660;BME280;3872;47.902;8.162;2023-02-01T09:32:33;92529.44;;;3.80;100.00
7660;BME280;3872;47.902;8.162;2023-02-01T09:35:00;92536.41;;;3.63;100.00
7660;BME280;3872;47.902;8.162;2023-02-01T09:37:28;92523.34;;;3.12;100.00
7660;BME280;3872;47.902;8.162;2023-02-01T09:39:54;92516.41;;;3.46;100.00
7660;BME280;3872;47.902;8.162;2023-02-01T09:42:35;92532.09;;;2.95;100.00
7660;BME280;3872;47.902;8.162;2023-02-01T09:45:17;92508.88;;;3.50;100.00
7660;BME280;3872;47.902;8.162;2023-02-01T09:47:49;92512.66;;;3.26;100.00
7660;BME280;3872;47.902;8.162;2023-02-01T09:50:19;92510.19;;;3.98;100.00
7660;BME280;3872;47.902;8.162;2023-02-01T09:52:52;92512.53;;;3.66;100.00
7660;BME280;3872;47.902;8.162;2023-02-01T09:55:25;92514.47;;;5.07;100.00
7660;BME280;3872;47.902;8.162;2023-02-01T09:57:58;92515.84;;;3.61;100.00
7660;BME280;3872;47.902;8.162;2023-02-01T10:00:29;92492.78;;;4.20;100.00
7660;BME280;3872;47.902;8.162;2023-02-01T10:02:56;92515.53;;;3.41;100.00
7660;BME280;3872;47.902;8.162;2023-02-01T10:05:35;92530.78;;;3.37;100.00
7660;BME280;3872;47.902;8.162;2023-02-01T10:08:14;92525.88;;;3.24;100.00
7660;BME280;3872;47.902;8.162;2023-02-01T10:10:45;92526.31;;;3.33;100.00
7660;BME280;3872;47.902;8.162;2023-02-01T10:13:23;92527.28;;;3.15;100.00
7660;BME280;3872;47.902;8.162;2023-02-01T10:16:00;92532.78;;;3.64;100.00
7660;BME280;3872;47.902;8.162;2023-02-01T10:18:42;92533.22;;;3.27;100.00
7660;BME280;3872;47.902;8.162;2023-02-01T10:21:21;92529.97;;;3.20;100.00
7660;BME280;3872;47.902;8.162;2023-02-01T10:24:31;92530.53;;;3.22;100.00
7660;BME280;3872;47.902;8.162;2023-02-01T10:27:06;92535.03;;;3.55;100.00
7660;BME280;3872;47.902;8.162;2023-02-01T10:29:37;92540.00;;;3.73;100.00
7660;BME280;3872;47.902;8.162;2023-02-01T10:32:11;92544.00;;;3.47;100.00
7660;BME280;3872;47.902;8.162;2023-02-01T10:34:39;92521.19;;;4.21;100.00
7660;BME280;3872;47.902;8.162;2023-02-01T10:37:17;92527.38;;;3.82;100.00
7660;BME280;3872;47.902;8.162;2023-02-01T10:39:48;92528.88;;;3.61;100.00
7660;BME280;3872;47.902;8.162;2023-02-01T10:42:17;92531.38;;;4.06;100.00
7660;BME280;3872;47.902;8.162;2023-02-01T10:44:45;92537.94;;;3.30;100.00
7660;BME280;3872;47.902;8.162;2023-02-01T10:47:14;92531.78;;;3.48;100.00
7660;BME280;3872;47.902;8.162;2023-02-01T10:49:43;92539.03;;;3.79;100.00
7660;BME280;3872;47.902;8.162;2023-02-01T10:52:14;92524.59;;;3.55;100.00
7660;BME280;3872;47.902;8.162;2023-02-01T10:54:43;92538.03;;;3.97;100.00
7660;BME280;3872;47.902;8.162;2023-02-01T10:57:20;92514.44;;;3.70;100.00
7660;BME280;3872;47.902;8.162;2023-02-01T10:59:47;92519.94;;;3.12;100.00
7660;BME280;3872;47.902;8.162;2023-02-01T11:02:19;92526.16;;;3.56;100.00
7660;BME280;3872;47.902;8.162;2023-02-01T11:04:47;92513.28;;;3.33;100.00
7660;BME280;3872;47.902;8.162;2023-02-01T11:07:17;92520.97;;;3.56;100.00
7660;BME280;3872;47.902;8.162;2023-02-01T11:09:49;92516.94;;;3.48;100.00
7660;BME280;3872;47.902;8.162;2023-02-01T11:12:25;92515.94;;;3.83;100.00
7660;BME280;3872;47.902;8.162;2023-02-01T11:14:58;92509.50;;;3.24;100.00
7660;BME280;3872;47.902;8.162;2023-02-01T11:17:27;92520.97;;;3.56;100.00
7660;BME280;3872;47.902;8.162;2023-02-01T11:19:58;92517.91;;;4.09;100.00
7660;BME280;3872;47.902;8.162;2023-02-01T11:22:26;92513.88;;;4.02;100.00
7660;BME280;3872;47.902;8.162;2023-02-01T11:24:55;92513.88;;;3.85;100.00
7660;BME280;3872;47.902;8.162;2023-02-01T11:27:24;92512.97;;;3.01;100.00
7660;BME280;3872;47.902;8.162;2023-02-01T11:29:53;92506.88;;;3.24;100.00
7660;BME280;3872;47.902;8.162;2023-02-01T11:32:23;92504.94;;;3.31;100.00
7660;BME280;3872;47.902;8.162;2023-02-01T11:34:53;92515.56;;;3.29;100.00
7660;BME280;3872;47.902;8.162;2023-02-01T11:37:23;92513.97;;;3.00;100.00
7660;BME280;3872;47.902;8.162;2023-02-01T11:39:55;92512.59;;;3.09;100.00
7660;BME280;3872;47.902;8.162;2023-02-01T11:42:24;92516.56;;;3.28;100.00
7660;BME280;3872;47.902;8.162;2023-02-01T11:45:15;92509.16;;;3.65;100.00
7660;BME280;3872;47.902;8.162;2023-02-01T11:47:42;92499.59;;;3.09;100.00
7660;BME280;3872;47.902;8.162;2023-02-01T11:50:15;92504.44;;;3.62;100.00
7660;BME280;3872;47.902;8.162;2023-02-01T11:52:54;92489.41;;;3.36;100.00
7660;BME280;3872;47.902;8.162;2023-02-01T11:55:36;92503.41;;;2.90;100.00
7660;BME280;3872;47.902;8.162;2023-02-01T11:58:30;92489.66;;;3.51;100.00
7660;BME280;3872;47.902;8.162;2023-02-01T12:01:12;92489.66;;;3.06;100.00
7660;BME280;3872;47.902;8.162;2023-02-01T12:04:04;92485.22;;;2.90;100.00
7660;BME280;3872;47.902;8.162;2023-02-01T12:06:44;92478.06;;;3.25;100.00
7660;BME280;3872;47.902;8.162;2023-02-01T12:09:26;92490.47;;;2.66;100.00
7660;BME280;3872;47.902;8.162;2023-02-01T12:12:03;92491.00;;;3.08;100.00
7660;BME280;3872;47.902;8.162;2023-02-01T12:14:49;92496.94;;;2.92;100.00
7660;BME280;3872;47.902;8.162;2023-02-01T12:17:46;92494.97;;;2.71;100.00
7660;BME280;3872;47.902;8.162;2023-02-01T12:20:28;92488.44;;;3.25;100.00
7660;BME280;3872;47.902;8.162;2023-02-01T12:23:10;92483.69;;;3.67;100.00
7660;BME280;3872;47.902;8.162;2023-02-01T12:25:54;92470.50;;;3.90;100.00
7660;BME280;3872;47.902;8.162;2023-02-01T12:28:36;92482.88;;;3.50;100.00
7660;BME280;3872;47.902;8.162;2023-02-01T12:31:20;92476.81;;;3.61;100.00
7660;BME280;3872;47.902;8.162;2023-02-01T12:34:05;92481.78;;;3.63;100.00
7660;BME280;3872;47.902;8.162;2023-02-01T12:36:46;92463.88;;;3.49;100.00
7660;BME280;3872;47.902;8.162;2023-02-01T12:39:22;92473.31;;;3.55;100.00
7660;BME280;3872;47.902;8.162;2023-02-01T12:41:55;92466.78;;;3.36;100.00
7660;BME280;3872;47.902;8.162;2023-02-01T12:44:39;92470.25;;;3.92;100.00
7660;BME280;3872;47.902;8.162;2023-02-01T12:47:15;92466.09;;;4.73;100.00
7660;BME280;3872;47.902;8.162;2023-02-01T12:49:50;92463.56;;;3.46;100.00
7660;BME280;3872;47.902;8.162;2023-02-01T12:52:23;92462.94;;;3.89;100.00
7660;BME280;3872;47.902;8.162;2023-02-01T12:54:56;92455.50;;;3.98;100.00
7660;BME280;3872;47.902;8.162;2023-02-01T12:57:26;92443.22;;;4.15;100.00
7660;BME280;3872;47.902;8.162;2023-02-01T13:00:01;92439.47;;;4.27;100.00
7660;BME280;3872;47.902;8.162;2023-02-01T13:02:34;92439.78;;;4.09;100.00
7660;BME280;3872;47.902;8.162;2023-02-01T13:05:12;92436.16;;;4.32;100.00
7660;BME280;3872;47.902;8.162;2023-02-01T13:07:44;92445.03;;;3.76;100.00
7660;BME280;3872;47.902;8.162;2023-02-01T13:10:15;92444.41;;;4.24;100.00
7660;BME280;3872;47.902;8.162;2023-02-01T13:12:49;92452.72;;;3.21;100.00
7660;BME280;3872;47.902;8.162;2023-02-01T13:15:23;92444.09;;;3.32;100.00
7660;BME280;3872;47.902;8.162;2023-02-01T13:17:55;92442.16;;;3.27;100.00
7660;BME280;3872;47.902;8.162;2023-02-01T13:20:28;92439.81;;;3.26;100.00
7660;BME280;3872;47.902;8.162;2023-02-01T13:23:00;92431.94;;;3.37;100.00
7660;BME280;3872;47.902;8.162;2023-02-01T13:25:34;92434.00;;;3.52;100.00
7660;BME280;3872;47.902;8.162;2023-02-01T13:28:05;92433.44;;;3.17;100.00
7660;BME280;3872;47.902;8.162;2023-02-01T13:30:47;92440.88;;;2.96;100.00
7660;BME280;3872;47.902;8.162;2023-02-01T13:33:37;92430.44;;;3.41;100.00
7660;BME280;3872;47.902;8.162;2023-02-01T13:36:24;92425.28;;;3.80;100.00
7660;BME280;3872;47.902;8.162;2023-02-01T13:39:25;92423.56;;;3.35;100.00
7660;BME280;3872;47.902;8.162;2023-02-01T13:41:57;92431.94;;;3.54;100.00
7660;BME280;3872;47.902;8.162;2023-02-01T13:44:28;92431.00;;;3.43;100.00
7660;BME280;3872;47.902;8.162;2023-02-01T13:47:08;92433.03;;;2.80;100.00
7660;BME280;3872;47.902;8.162;2023-02-01T13:49:39;92428.31;;;3.22;100.00